createdAt,value
2017-04-20T00:02:59.743Z,929.81
2017-04-20T00:05:01.240Z,929.77
2017-04-20T00:10:16.291Z,929.83
2017-04-20T00:12:17.710Z,929.84
2017-04-20T00:13:33.935Z,929.87
2017-04-20T00:15:21.056Z,929.89
2017-04-20T00:16:37.201Z,929.88
2017-04-20T00:20:25.567Z,929.89
2017-04-20T00:26:35.451Z,929.99
2017-04-20T00:27:51.650Z,929.94
2017-04-20T00:31:09.015Z,929.95
2017-04-20T00:31:54.133Z,929.95
2017-04-20T00:33:10.274Z,929.98
2017-04-20T00:33:55.406Z,929.97
2017-04-20T00:34:40.584Z,929.98
2017-04-20T00:35:25.677Z,929.94
2017-04-20T00:38:59.895Z,929.97
2017-04-20T00:40:47.024Z,929.96
2017-04-20T00:45:37.654Z,929.96
2017-04-20T00:47:38.935Z,929.95
2017-04-20T00:48:24.115Z,929.96
2017-04-20T00:52:12.500Z,929.93
2017-04-20T00:54:44.662Z,929.93
2017-04-20T00:57:16.953Z,929.96
2017-04-20T01:05:55.763Z,929.97
2017-04-20T01:07:01.605Z,930
2017-04-20T01:08:48.697Z,929.98
2017-04-20T01:09:33.802Z,929.98
2017-04-20T01:10:50.107Z,929.98
2017-04-20T01:12:07.718Z,929.94
2017-04-20T01:13:00.122Z,929.95
2017-04-20T01:15:13.015Z,929.95
2017-04-20T01:34:13.380Z,929.95
2017-04-20T01:43:00.136Z,929.99
2017-04-20T01:43:14.291Z,930
2017-04-20T01:44:13.165Z,929.98
2017-04-20T01:47:47.526Z,930.02
2017-04-20T01:48:52.861Z,930.01
2017-04-20T01:55:30.266Z,930.01
2017-04-20T01:56:46.422Z,929.99
2017-04-20T01:58:02.729Z,930.05
2017-04-20T02:01:20.168Z,930.09
2017-04-20T02:07:58.396Z,929.99
2017-04-20T02:09:14.507Z,930.02
2017-04-20T02:11:01.581Z,929.98
2017-04-20T02:12:17.677Z,929.95
2017-04-20T02:13:02.842Z,929.92
2017-04-20T02:15:24.004Z,929.92
2017-04-20T02:18:58.286Z,930.02
2017-04-20T02:19:43.620Z,930
2017-04-20T02:21:44.840Z,929.98
2017-04-20T02:23:00.948Z,930.03
2017-04-20T02:26:57.678Z,929.94
2017-04-20T02:28:14.505Z,929.92
2017-04-20T02:30:11.870Z,929.92
2017-04-20T02:33:46.434Z,929.95
2017-04-20T02:39:37.418Z,929.94
2017-04-20T02:41:43.928Z,929.95
2017-04-20T02:42:28.982Z,929.95
2017-04-20T02:47:19.551Z,929.98
2017-04-20T02:49:06.753Z,929.99
2017-04-20T02:50:22.969Z,929.99
2017-04-20T02:51:53.389Z,930.05
2017-04-20T02:53:11.461Z,930
2017-04-20T02:54:08.345Z,930.03
2017-04-20T02:55:24.408Z,930.05
2017-04-20T02:56:40.512Z,930.08
2017-04-20T02:57:05.762Z,930.08
2017-04-20T02:58:03.655Z,930.09
2017-04-20T03:01:00.969Z,930.07
2017-04-20T03:02:06.778Z,930.08
2017-04-20T03:03:43.513Z,930.08
2017-04-20T03:04:23.340Z,930.05
2017-04-20T03:05:09.637Z,930.05
2017-04-20T03:05:44.893Z,930.08
2017-04-20T03:06:04.897Z,930.12
2017-04-20T03:07:02.772Z,930.1
2017-04-20T03:08:47.281Z,930.08
2017-04-20T03:10:25.261Z,930.14
2017-04-20T03:11:30.369Z,930.15
2017-04-20T03:11:44.536Z,930.14
2017-04-20T03:12:27.154Z,930.14
2017-04-20T03:13:38.115Z,930.08
2017-04-20T03:15:00.726Z,930.11
2017-04-20T03:16:46.996Z,930.02
2017-04-20T03:20:00.678Z,929.92
2017-04-20T03:21:17.908Z,929.91
2017-04-20T03:22:48.716Z,929.9
2017-04-20T03:26:20.301Z,929.89
2017-04-20T03:28:14.788Z,929.9
2017-04-20T03:29:05.685Z,929.88
2017-04-20T03:30:21.976Z,929.92
2017-04-20T03:31:33.238Z,929.94
2017-04-20T03:32:42.888Z,929.85
2017-04-20T03:33:40.747Z,929.93
2017-04-20T03:35:12.909Z,929.84
2017-04-20T03:36:34.989Z,929.87
2017-04-20T03:37:23.341Z,929.84
2017-04-20T03:37:52.477Z,929.82
2017-04-20T03:38:35.374Z,929.87
2017-04-20T03:39:56.576Z,929.83
2017-04-20T03:43:42.442Z,929.73
2017-04-20T03:44:39.495Z,929.79
2017-04-20T03:44:55.635Z,929.77
2017-04-20T03:46:27.994Z,929.75
2017-04-20T03:47:59.861Z,929.77
2017-04-20T03:48:24.330Z,929.78
2017-04-20T03:49:09.480Z,929.79
2017-04-20T03:49:47.623Z,929.82
2017-04-20T03:50:02.560Z,929.81
2017-04-20T03:51:02.362Z,929.81
2017-04-20T03:51:49.746Z,929.85
2017-04-20T03:52:08.129Z,929.87
2017-04-20T03:54:10.489Z,929.83
2017-04-20T03:54:57.499Z,929.9
2017-04-20T03:55:13.636Z,929.89
2017-04-20T03:55:58.712Z,929.91
2017-04-20T03:56:40.837Z,929.93
2017-04-20T03:57:01.844Z,929.87
2017-04-20T03:57:52.756Z,929.82
2017-04-20T03:58:22.873Z,929.87
2017-04-20T04:00:03.504Z,929.83
2017-04-20T04:01:21.436Z,929.82
2017-04-20T04:01:55.086Z,929.79
2017-04-20T04:02:20.826Z,929.89
2017-04-20T04:02:35.178Z,929.79
2017-04-20T04:04:07.330Z,929.78
2017-04-20T04:05:34.533Z,929.83
2017-04-20T04:06:49.347Z,929.82
2017-04-20T04:07:11.367Z,929.76
2017-04-20T04:07:25.714Z,929.8
2017-04-20T04:07:41.690Z,929.78
2017-04-20T04:08:25.771Z,929.76
2017-04-20T04:09:11.477Z,929.76
2017-04-20T04:09:26.462Z,929.69
2017-04-20T04:09:51.119Z,929.7
2017-04-20T04:10:05.242Z,929.62
2017-04-20T04:10:19.282Z,929.67
2017-04-20T04:10:46.206Z,929.64
2017-04-20T04:11:19.563Z,929.61
2017-04-20T04:12:37.969Z,929.6
2017-04-20T04:12:54.154Z,929.6
2017-04-20T04:13:08.597Z,929.6
2017-04-20T04:14:10.839Z,929.69
2017-04-20T04:14:25.840Z,929.61
2017-04-20T04:14:51.503Z,929.65
2017-04-20T04:15:06.375Z,929.61
2017-04-20T04:15:22.111Z,929.62
2017-04-20T04:15:45.104Z,929.64
2017-04-20T04:16:05.386Z,929.59
2017-04-20T04:16:49.071Z,929.6
2017-04-20T04:17:03.525Z,929.6
2017-04-20T04:17:20.020Z,929.57
2017-04-20T04:18:21.405Z,929.56
2017-04-20T04:19:09.090Z,929.55
2017-04-20T04:19:23.241Z,929.52
2017-04-20T04:19:38.855Z,929.53
2017-04-20T04:19:53.853Z,929.52
2017-04-20T04:21:01.523Z,929.5
2017-04-20T04:21:21.232Z,929.47
2017-04-20T04:21:38.074Z,929.44
2017-04-20T04:21:53.486Z,929.48
2017-04-20T04:22:07.652Z,929.47
2017-04-20T04:22:21.809Z,929.48
2017-04-20T04:22:35.970Z,929.46
2017-04-20T04:22:50.143Z,929.47
2017-04-20T04:23:05.547Z,929.42
2017-04-20T04:23:23.644Z,929.43
2017-04-20T04:23:46.329Z,929.44
2017-04-20T04:24:00.557Z,929.45
2017-04-20T04:24:14.770Z,929.47
2017-04-20T04:24:28.900Z,929.48
2017-04-20T04:24:42.974Z,929.44
2017-04-20T04:24:57.114Z,929.44
2017-04-20T04:25:11.225Z,929.41
2017-04-20T04:25:25.407Z,929.4
2017-04-20T04:25:39.487Z,929.39
2017-04-20T04:25:53.635Z,929.44
2017-04-20T04:26:07.716Z,929.45
2017-04-20T04:26:21.936Z,929.4
2017-04-20T04:26:36.098Z,929.42
2017-04-20T04:26:52.227Z,929.42
2017-04-20T04:27:06.378Z,929.41
2017-04-20T04:27:26.793Z,929.4
2017-04-20T04:27:40.983Z,929.39
2017-04-20T04:27:55.120Z,929.39
2017-04-20T04:28:09.257Z,929.37
2017-04-20T04:28:25.154Z,929.39
2017-04-20T04:28:39.661Z,929.38
2017-04-20T04:29:15.485Z,929.33
2017-04-20T04:29:32.756Z,929.36
2017-04-20T04:29:46.931Z,929.32
2017-04-20T04:30:01.102Z,929.36
2017-04-20T04:30:15.443Z,929.31
2017-04-20T04:30:29.625Z,929.34
2017-04-20T04:30:43.747Z,929.34
2017-04-20T04:30:57.885Z,929.37
2017-04-20T04:31:12.052Z,929.39
2017-04-20T04:31:26.180Z,929.38
2017-04-20T04:31:40.389Z,929.35
2017-04-20T04:31:55.737Z,929.34
2017-04-20T04:32:10.633Z,929.32
2017-04-20T04:32:24.822Z,929.37
2017-04-20T04:32:38.995Z,929.36
2017-04-20T04:32:53.336Z,929.38
2017-04-20T04:33:08.744Z,929.31
2017-04-20T04:33:22.918Z,929.35
2017-04-20T04:33:40.096Z,929.3
2017-04-20T04:33:54.245Z,929.31
2017-04-20T04:34:08.428Z,929.29
2017-04-20T04:34:22.568Z,929.35
2017-04-20T04:34:36.691Z,929.29
2017-04-20T04:34:50.858Z,929.31
2017-04-20T04:35:05.037Z,929.3
2017-04-20T04:35:19.198Z,929.23
2017-04-20T04:35:33.336Z,929.32
2017-04-20T04:35:47.468Z,929.25
2017-04-20T04:36:01.662Z,929.24
2017-04-20T04:36:15.785Z,929.31
2017-04-20T04:36:29.867Z,929.28
2017-04-20T04:36:44.005Z,929.3
2017-04-20T04:36:58.147Z,929.3
2017-04-20T04:37:12.194Z,929.26
2017-04-20T04:37:26.309Z,929.28
2017-04-20T04:37:40.395Z,929.25
2017-04-20T04:37:54.500Z,929.29
2017-04-20T04:38:08.627Z,929.27
2017-04-20T04:38:22.764Z,929.23
2017-04-20T04:38:36.898Z,929.25
2017-04-20T04:38:51.114Z,929.22
2017-04-20T04:39:05.228Z,929.25
2017-04-20T04:39:19.340Z,929.25
2017-04-20T04:39:33.557Z,929.23
2017-04-20T04:39:47.669Z,929.19
2017-04-20T04:40:01.805Z,929.22
2017-04-20T04:40:15.935Z,929.22
2017-04-20T04:40:30.030Z,929.21
2017-04-20T04:40:44.129Z,929.22
2017-04-20T04:40:58.281Z,929.25
2017-04-20T04:41:12.372Z,929.27
2017-04-20T04:41:26.479Z,929.22
2017-04-20T04:41:40.627Z,929.22
2017-04-20T04:41:54.722Z,929.24
2017-04-20T04:42:08.824Z,929.23
2017-04-20T04:42:22.980Z,929.28
2017-04-20T04:42:37.072Z,929.25
2017-04-20T04:42:51.176Z,929.25
2017-04-20T04:43:05.303Z,929.25
2017-04-20T04:43:19.476Z,929.22
2017-04-20T04:43:33.601Z,929.21
2017-04-20T04:43:47.709Z,929.22
2017-04-20T04:44:01.877Z,929.2
2017-04-20T04:44:16.039Z,929.26
2017-04-20T04:44:30.181Z,929.22
2017-04-20T04:44:44.320Z,929.23
2017-04-20T04:44:58.469Z,929.23
2017-04-20T04:45:12.585Z,929.22
2017-04-20T04:45:26.772Z,929.21
2017-04-20T04:45:40.950Z,929.21
2017-04-20T04:45:55.090Z,929.22
2017-04-20T04:46:09.185Z,929.2
2017-04-20T04:46:23.341Z,929.19
2017-04-20T04:46:37.764Z,929.19
2017-04-20T04:46:51.932Z,929.15
2017-04-20T04:47:06.089Z,929.15
2017-04-20T04:47:20.249Z,929.16
2017-04-20T04:47:34.340Z,929.13
2017-04-20T04:47:48.602Z,929.18
2017-04-20T04:48:02.712Z,929.17
2017-04-20T04:48:16.868Z,929.13
2017-04-20T04:48:30.999Z,929.19
2017-04-20T04:48:45.143Z,929.16
2017-04-20T04:48:59.299Z,929.15
2017-04-20T04:49:13.402Z,929.15
2017-04-20T04:49:27.561Z,929.12
2017-04-20T04:49:41.904Z,929.14
2017-04-20T04:49:56.069Z,929.12
2017-04-20T04:50:10.202Z,929.14
2017-04-20T04:50:24.322Z,929.14
2017-04-20T04:50:38.483Z,929.15
2017-04-20T04:50:52.628Z,929.14
2017-04-20T04:51:06.713Z,929.13
2017-04-20T04:51:20.804Z,929.11
2017-04-20T04:51:34.879Z,929.15
2017-04-20T04:51:48.983Z,929.09
2017-04-20T04:52:03.085Z,929.12
2017-04-20T04:52:17.210Z,929.16
2017-04-20T04:52:31.353Z,929.12
2017-04-20T04:52:45.441Z,929.16
2017-04-20T04:52:59.621Z,929.16
2017-04-20T04:53:13.747Z,929.18
2017-04-20T04:53:28.100Z,929.15
2017-04-20T04:53:42.223Z,929.15
2017-04-20T04:53:56.376Z,929.12
2017-04-20T04:54:10.453Z,929.14
2017-04-20T04:54:24.633Z,929.17
2017-04-20T04:54:39.215Z,929.16
2017-04-20T04:54:53.423Z,929.17
2017-04-20T04:55:07.510Z,929.18
2017-04-20T04:55:21.618Z,929.16
2017-04-20T04:55:35.737Z,929.22
2017-04-20T04:55:49.893Z,929.17
2017-04-20T04:56:04.047Z,929.23
2017-04-20T04:56:18.134Z,929.18
2017-04-20T04:56:32.272Z,929.18
2017-04-20T04:56:46.432Z,929.18
2017-04-20T04:57:00.618Z,929.17
2017-04-20T04:57:14.699Z,929.21
2017-04-20T04:57:28.808Z,929.19
2017-04-20T04:57:42.923Z,929.18
2017-04-20T04:57:57.036Z,929.2
2017-04-20T04:58:11.139Z,929.18
2017-04-20T04:58:25.264Z,929.17
2017-04-20T04:58:39.368Z,929.16
2017-04-20T04:58:53.478Z,929.19
2017-04-20T04:59:07.618Z,929.2
2017-04-20T04:59:21.788Z,929.17
2017-04-20T04:59:35.897Z,929.15
2017-04-20T04:59:50.064Z,929.16
2017-04-20T05:00:04.195Z,929.2
2017-04-20T05:00:18.434Z,929.2
2017-04-20T05:00:32.580Z,929.21
2017-04-20T05:00:46.761Z,929.15
2017-04-20T05:01:00.871Z,929.13
2017-04-20T05:01:14.973Z,929.19
2017-04-20T05:01:29.286Z,929.15
2017-04-20T05:01:43.445Z,929.1
2017-04-20T05:01:57.595Z,929.14
2017-04-20T05:02:11.719Z,929.15
2017-04-20T05:02:25.852Z,929.12
2017-04-20T05:02:39.929Z,929.15
2017-04-20T05:02:54.078Z,929.12
2017-04-20T05:03:08.254Z,929.12
2017-04-20T05:03:22.421Z,929.15
2017-04-20T05:03:36.580Z,929.13
2017-04-20T05:03:50.744Z,929.15
2017-04-20T05:04:04.861Z,929.14
2017-04-20T05:04:19.013Z,929.14
2017-04-20T05:04:33.117Z,929.14
2017-04-20T05:04:47.262Z,929.13
2017-04-20T05:05:01.392Z,929.16
2017-04-20T05:05:15.539Z,929.12
2017-04-20T05:05:29.697Z,929.17
2017-04-20T05:05:43.871Z,929.14
2017-04-20T05:05:58.223Z,929.13
2017-04-20T05:06:12.379Z,929.13
2017-04-20T05:06:26.489Z,929.15
2017-04-20T05:06:40.592Z,929.16
2017-04-20T05:06:54.789Z,929.13
2017-04-20T05:07:08.958Z,929.12
2017-04-20T05:07:23.058Z,929.08
2017-04-20T05:07:37.218Z,929.11
2017-04-20T05:07:51.309Z,929.16
2017-04-20T05:08:05.462Z,929.09
2017-04-20T05:08:19.815Z,929.09
2017-04-20T05:08:34.005Z,929.1
2017-04-20T05:08:48.082Z,929.1
2017-04-20T05:09:02.248Z,929.1
2017-04-20T05:09:16.374Z,929.09
2017-04-20T05:09:30.494Z,929.04
2017-04-20T05:09:44.739Z,929.08
2017-04-20T05:09:58.879Z,929.05
2017-04-20T05:10:13.018Z,929.06
2017-04-20T05:10:27.137Z,929.08
2017-04-20T05:10:41.304Z,929.1
2017-04-20T05:10:55.421Z,929.05
2017-04-20T05:11:09.611Z,929.05
2017-04-20T05:11:23.772Z,929.06
2017-04-20T05:11:37.953Z,929.04
2017-04-20T05:11:52.091Z,929.07
2017-04-20T05:12:06.216Z,929.07
2017-04-20T05:12:20.329Z,929.05
2017-04-20T05:12:34.527Z,929.05
2017-04-20T05:12:48.674Z,929.03
2017-04-20T05:13:02.805Z,929.07
2017-04-20T05:13:16.883Z,929.04
2017-04-20T05:13:31.018Z,929.03
2017-04-20T05:13:45.194Z,929.06
2017-04-20T05:13:59.329Z,929.03
2017-04-20T05:14:13.479Z,929.06
2017-04-20T05:14:27.570Z,929.06
2017-04-20T05:14:41.723Z,929.06
2017-04-20T05:14:55.866Z,929.05
2017-04-20T05:15:10.110Z,929.03
2017-04-20T05:15:24.234Z,929.06
2017-04-20T05:15:38.385Z,928.99
2017-04-20T05:15:52.556Z,929
2017-04-20T05:16:06.675Z,929.02
2017-04-20T05:16:20.807Z,929.02
2017-04-20T05:16:34.925Z,929.02
2017-04-20T05:16:49.058Z,929.01
2017-04-20T05:17:03.166Z,929.02
2017-04-20T05:17:17.292Z,929.01
2017-04-20T05:17:31.423Z,929.05
2017-04-20T05:17:45.545Z,928.99
2017-04-20T05:17:59.670Z,929.03
2017-04-20T05:18:13.792Z,929.03
2017-04-20T05:18:27.938Z,928.97
2017-04-20T05:18:42.042Z,928.99
2017-04-20T05:18:56.219Z,928.98
2017-04-20T05:19:10.366Z,928.99
2017-04-20T05:19:24.486Z,929.02
2017-04-20T05:19:38.630Z,928.98
2017-04-20T05:19:52.818Z,928.95
2017-04-20T05:20:06.928Z,928.97
2017-04-20T05:20:21.074Z,928.98
2017-04-20T05:20:35.337Z,928.99
2017-04-20T05:20:49.473Z,928.95
2017-04-20T05:21:03.586Z,928.98
2017-04-20T05:21:17.726Z,928.98
2017-04-20T05:21:31.874Z,928.95
2017-04-20T05:21:46.029Z,928.93
2017-04-20T05:22:00.135Z,928.92
2017-04-20T05:22:14.272Z,928.96
2017-04-20T05:22:28.410Z,928.89
2017-04-20T05:22:42.601Z,928.88
2017-04-20T05:22:56.859Z,928.91
2017-04-20T05:23:10.966Z,928.91
2017-04-20T05:23:25.124Z,928.87
2017-04-20T05:23:39.248Z,928.92
2017-04-20T05:23:53.403Z,928.89
2017-04-20T05:24:07.545Z,928.87
2017-04-20T05:24:21.621Z,928.9
2017-04-20T05:24:35.793Z,928.87
2017-04-20T05:24:50.072Z,928.86
2017-04-20T05:25:04.326Z,928.84
2017-04-20T05:25:18.466Z,928.86
2017-04-20T05:25:32.661Z,928.86
2017-04-20T05:25:46.779Z,928.87
2017-04-20T05:26:00.947Z,928.87
2017-04-20T05:26:15.117Z,928.9
2017-04-20T05:26:29.182Z,928.83
2017-04-20T05:26:43.344Z,928.87
2017-04-20T05:26:57.479Z,928.83
2017-04-20T05:27:11.657Z,928.85
2017-04-20T05:27:25.758Z,928.87
2017-04-20T05:27:39.900Z,928.88
2017-04-20T05:27:54.071Z,928.86
2017-04-20T05:28:08.192Z,928.83
2017-04-20T05:28:22.273Z,928.86
2017-04-20T05:28:36.433Z,928.86
2017-04-20T05:28:50.587Z,928.87
2017-04-20T05:29:04.742Z,928.84
2017-04-20T05:29:18.888Z,928.87
2017-04-20T05:29:33.007Z,928.87
2017-04-20T05:29:47.167Z,928.85
2017-04-20T05:30:01.345Z,928.89
2017-04-20T05:30:15.485Z,928.87
2017-04-20T05:30:29.634Z,928.87
2017-04-20T05:30:43.787Z,928.83
2017-04-20T05:30:57.964Z,928.86
2017-04-20T05:31:12.065Z,928.9
2017-04-20T05:31:26.208Z,928.88
2017-04-20T05:31:40.402Z,928.84
2017-04-20T05:31:54.540Z,928.88
2017-04-20T05:32:08.697Z,928.83
2017-04-20T05:32:22.913Z,928.87
2017-04-20T05:32:37.083Z,928.87
2017-04-20T05:32:51.172Z,928.87
2017-04-20T05:33:05.316Z,928.91
2017-04-20T05:33:19.459Z,928.84
2017-04-20T05:33:33.581Z,928.88
2017-04-20T05:33:47.736Z,928.87
2017-04-20T05:34:01.853Z,928.88
2017-04-20T05:34:16.028Z,928.84
2017-04-20T05:34:30.202Z,928.8
2017-04-20T05:34:44.337Z,928.82
2017-04-20T05:34:58.488Z,928.83
2017-04-20T05:35:12.655Z,928.84
2017-04-20T05:35:26.744Z,928.82
2017-04-20T05:35:40.854Z,928.82
2017-04-20T05:35:54.941Z,928.81
2017-04-20T05:36:09.129Z,928.84
2017-04-20T05:36:23.226Z,928.8
2017-04-20T05:36:37.337Z,928.81
2017-04-20T05:36:51.521Z,928.84
2017-04-20T05:37:05.697Z,928.83
2017-04-20T05:37:19.933Z,928.8
2017-04-20T05:37:34.016Z,928.79
2017-04-20T05:37:48.174Z,928.77
2017-04-20T05:38:02.317Z,928.78
2017-04-20T05:38:16.443Z,928.78
2017-04-20T05:38:30.604Z,928.78
2017-04-20T05:38:44.767Z,928.79
2017-04-20T05:38:58.960Z,928.75
2017-04-20T05:39:13.139Z,928.73
2017-04-20T05:39:27.271Z,928.73
2017-04-20T05:39:41.378Z,928.77
2017-04-20T05:39:55.600Z,928.77
2017-04-20T05:40:09.738Z,928.76
2017-04-20T05:40:23.875Z,928.73
2017-04-20T05:40:37.982Z,928.8
2017-04-20T05:40:52.115Z,928.72
2017-04-20T05:41:06.342Z,928.72
2017-04-20T05:41:20.461Z,928.73
2017-04-20T05:41:34.611Z,928.7
2017-04-20T05:41:48.737Z,928.71
2017-04-20T05:42:02.916Z,928.7
2017-04-20T05:42:17.042Z,928.7
2017-04-20T05:42:31.226Z,928.73
2017-04-20T05:42:45.388Z,928.72
2017-04-20T05:42:59.509Z,928.67
2017-04-20T05:43:13.631Z,928.71
2017-04-20T05:43:27.837Z,928.72
2017-04-20T05:43:41.902Z,928.74
2017-04-20T05:43:56.045Z,928.7
2017-04-20T05:44:10.147Z,928.73
2017-04-20T05:44:24.236Z,928.72
2017-04-20T05:44:38.343Z,928.68
2017-04-20T05:44:52.615Z,928.71
2017-04-20T05:45:06.745Z,928.72
2017-04-20T05:45:20.861Z,928.71
2017-04-20T05:45:35.009Z,928.73
2017-04-20T05:45:49.118Z,928.69
2017-04-20T05:46:03.262Z,928.72
2017-04-20T05:46:17.421Z,928.71
2017-04-20T05:46:31.540Z,928.7
2017-04-20T05:46:45.663Z,928.74
2017-04-20T05:46:59.776Z,928.69
2017-04-20T05:47:13.877Z,928.71
2017-04-20T05:47:28.045Z,928.72
2017-04-20T05:47:42.196Z,928.74
2017-04-20T05:47:56.426Z,928.76
2017-04-20T05:48:10.524Z,928.75
2017-04-20T05:48:24.683Z,928.72
2017-04-20T05:48:38.783Z,928.72
2017-04-20T05:48:52.966Z,928.72
2017-04-20T05:49:07.276Z,928.77
2017-04-20T05:49:21.392Z,928.74
2017-04-20T05:49:35.490Z,928.73
2017-04-20T05:49:49.557Z,928.75
2017-04-20T05:50:03.673Z,928.71
2017-04-20T05:50:17.792Z,928.74
2017-04-20T05:50:31.985Z,928.71
2017-04-20T05:50:46.100Z,928.7
2017-04-20T05:51:00.247Z,928.7
2017-04-20T05:51:14.378Z,928.72
2017-04-20T05:51:28.493Z,928.71
2017-04-20T05:51:42.588Z,928.69
2017-04-20T05:51:56.721Z,928.71
2017-04-20T05:52:10.802Z,928.68
2017-04-20T05:52:25.035Z,928.73
2017-04-20T05:52:39.212Z,928.72
2017-04-20T05:52:53.323Z,928.69
2017-04-20T05:53:07.451Z,928.67
2017-04-20T05:53:21.504Z,928.72
2017-04-20T05:53:35.600Z,928.67
2017-04-20T05:53:49.723Z,928.67
2017-04-20T05:54:03.817Z,928.67
2017-04-20T05:54:17.946Z,928.67
2017-04-20T05:54:32.062Z,928.69
2017-04-20T05:54:46.342Z,928.67
2017-04-20T05:55:00.540Z,928.67
2017-04-20T05:55:14.692Z,928.64
2017-04-20T05:55:28.733Z,928.65
2017-04-20T05:55:42.810Z,928.59
2017-04-20T05:55:57.069Z,928.62
2017-04-20T05:56:11.222Z,928.61
2017-04-20T05:56:25.301Z,928.6
2017-04-20T05:56:39.421Z,928.62
2017-04-20T05:56:53.542Z,928.62
2017-04-20T05:57:07.640Z,928.63
2017-04-20T05:57:21.736Z,928.61
2017-04-20T05:57:35.792Z,928.63
2017-04-20T05:57:49.939Z,928.65
2017-04-20T05:58:04.023Z,928.65
2017-04-20T05:58:18.154Z,928.66
2017-04-20T05:58:32.278Z,928.66
2017-04-20T05:58:46.367Z,928.62
2017-04-20T05:59:00.456Z,928.67
2017-04-20T05:59:14.605Z,928.65
2017-04-20T05:59:28.782Z,928.69
2017-04-20T05:59:42.904Z,928.7
2017-04-20T05:59:57.001Z,928.68
2017-04-20T06:00:11.112Z,928.67
2017-04-20T06:00:25.222Z,928.7
2017-04-20T06:00:39.318Z,928.68
2017-04-20T06:00:53.476Z,928.69
2017-04-20T06:01:07.641Z,928.66
2017-04-20T06:01:21.743Z,928.69
2017-04-20T06:01:35.855Z,928.65
2017-04-20T06:01:49.993Z,928.68
2017-04-20T06:02:04.104Z,928.67
2017-04-20T06:02:18.276Z,928.65
2017-04-20T06:02:32.422Z,928.65
2017-04-20T06:02:46.577Z,928.63
2017-04-20T06:03:00.703Z,928.65
2017-04-20T06:03:14.881Z,928.67
2017-04-20T06:03:28.981Z,928.68
2017-04-20T06:03:43.132Z,928.7
2017-04-20T06:03:57.271Z,928.69
2017-04-20T06:04:11.382Z,928.67
2017-04-20T06:04:25.564Z,928.73
2017-04-20T06:04:39.684Z,928.63
2017-04-20T06:04:53.854Z,928.68
2017-04-20T06:05:07.929Z,928.67
2017-04-20T06:05:22.101Z,928.69
2017-04-20T06:05:36.245Z,928.66
2017-04-20T06:05:50.374Z,928.64
2017-04-20T06:06:04.489Z,928.67
2017-04-20T06:06:18.628Z,928.67
2017-04-20T06:06:32.738Z,928.66
2017-04-20T06:06:46.886Z,928.65
2017-04-20T06:07:01.050Z,928.66
2017-04-20T06:07:15.181Z,928.67
2017-04-20T06:07:29.269Z,928.69
2017-04-20T06:07:43.346Z,928.68
2017-04-20T06:07:57.424Z,928.68
2017-04-20T06:08:11.617Z,928.65
2017-04-20T06:08:25.787Z,928.69
2017-04-20T06:08:39.947Z,928.69
2017-04-20T06:08:54.058Z,928.67
2017-04-20T06:09:08.208Z,928.68
2017-04-20T06:09:22.355Z,928.69
2017-04-20T06:09:36.492Z,928.67
2017-04-20T06:09:50.608Z,928.66
2017-04-20T06:10:04.709Z,928.66
2017-04-20T06:10:18.954Z,928.66
2017-04-20T06:10:33.211Z,928.68
2017-04-20T06:10:47.349Z,928.7
2017-04-20T06:11:01.520Z,928.64
2017-04-20T06:11:15.630Z,928.65
2017-04-20T06:11:29.764Z,928.67
2017-04-20T06:11:43.898Z,928.62
2017-04-20T06:11:58.008Z,928.65
2017-04-20T06:12:12.193Z,928.65
2017-04-20T06:12:26.280Z,928.63
2017-04-20T06:12:40.341Z,928.62
2017-04-20T06:12:54.503Z,928.62
2017-04-20T06:13:08.647Z,928.64
2017-04-20T06:13:22.727Z,928.68
2017-04-20T06:13:36.859Z,928.65
2017-04-20T06:13:50.973Z,928.58
2017-04-20T06:14:05.060Z,928.6
2017-04-20T06:14:19.178Z,928.66
2017-04-20T06:14:33.536Z,928.59
2017-04-20T06:14:47.677Z,928.61
2017-04-20T06:15:01.834Z,928.61
2017-04-20T06:15:16.179Z,928.62
2017-04-20T06:15:30.297Z,928.61
2017-04-20T06:15:44.434Z,928.6
2017-04-20T06:15:58.590Z,928.64
2017-04-20T06:16:12.685Z,928.59
2017-04-20T06:16:26.815Z,928.53
2017-04-20T06:16:40.916Z,928.6
2017-04-20T06:16:55.109Z,928.59
2017-04-20T06:17:09.252Z,928.58
2017-04-20T06:17:23.628Z,928.61
2017-04-20T06:17:38.021Z,928.61
2017-04-20T06:17:52.209Z,928.62
2017-04-20T06:18:06.352Z,928.57
2017-04-20T06:18:20.455Z,928.61
2017-04-20T06:18:34.655Z,928.6
2017-04-20T06:18:48.783Z,928.6
2017-04-20T06:19:02.898Z,928.59
2017-04-20T06:19:16.986Z,928.58
2017-04-20T06:19:31.053Z,928.58
2017-04-20T06:19:45.282Z,928.61
2017-04-20T06:19:59.368Z,928.63
2017-04-20T06:20:13.501Z,928.6
2017-04-20T06:20:27.644Z,928.58
2017-04-20T06:20:41.843Z,928.61
2017-04-20T06:20:55.967Z,928.62
2017-04-20T06:21:10.145Z,928.6
2017-04-20T06:21:24.226Z,928.59
2017-04-20T06:21:38.344Z,928.63
2017-04-20T06:21:52.434Z,928.64
2017-04-20T06:22:06.589Z,928.64
2017-04-20T06:22:20.699Z,928.63
2017-04-20T06:22:34.853Z,928.61
2017-04-20T06:22:49.003Z,928.67
2017-04-20T06:23:03.173Z,928.65
2017-04-20T06:23:17.356Z,928.62
2017-04-20T06:23:31.542Z,928.59
2017-04-20T06:23:45.679Z,928.58
2017-04-20T06:23:59.794Z,928.59
2017-04-20T06:24:14.032Z,928.61
2017-04-20T06:24:28.196Z,928.62
2017-04-20T06:24:42.348Z,928.6
2017-04-20T06:24:56.481Z,928.59
2017-04-20T06:25:10.619Z,928.6
2017-04-20T06:25:24.945Z,928.58
2017-04-20T06:25:39.083Z,928.58
2017-04-20T06:25:53.237Z,928.58
2017-04-20T06:26:07.353Z,928.55
2017-04-20T06:26:21.501Z,928.58
2017-04-20T06:26:35.657Z,928.54
2017-04-20T06:26:49.814Z,928.54
2017-04-20T06:27:03.978Z,928.54
2017-04-20T06:27:18.118Z,928.53
2017-04-20T06:27:32.232Z,928.56
2017-04-20T06:27:46.381Z,928.52
2017-04-20T06:28:00.493Z,928.55
2017-04-20T06:28:14.531Z,928.51
2017-04-20T06:28:28.702Z,928.5
2017-04-20T06:28:42.817Z,928.55
2017-04-20T06:28:57.011Z,928.5
2017-04-20T06:29:11.167Z,928.52
2017-04-20T06:29:25.338Z,928.5
2017-04-20T06:29:39.465Z,928.53
2017-04-20T06:29:53.629Z,928.52
2017-04-20T06:30:07.745Z,928.5
2017-04-20T06:30:21.808Z,928.49
2017-04-20T06:30:35.948Z,928.47
2017-04-20T06:30:50.137Z,928.48
2017-04-20T06:31:04.302Z,928.46
2017-04-20T06:31:18.433Z,928.44
2017-04-20T06:31:32.571Z,928.51
2017-04-20T06:31:46.724Z,928.49
2017-04-20T06:32:00.842Z,928.46
2017-04-20T06:32:14.957Z,928.48
2017-04-20T06:32:29.064Z,928.46
2017-04-20T06:32:43.231Z,928.45
2017-04-20T06:32:57.347Z,928.47
2017-04-20T06:33:11.528Z,928.43
2017-04-20T06:33:25.646Z,928.46
2017-04-20T06:33:39.787Z,928.44
2017-04-20T06:33:53.998Z,928.43
2017-04-20T06:34:08.090Z,928.46
2017-04-20T06:34:22.303Z,928.46
2017-04-20T06:34:36.617Z,928.46
2017-04-20T06:34:50.740Z,928.44
2017-04-20T06:35:04.878Z,928.45
2017-04-20T06:35:19.021Z,928.42
2017-04-20T06:35:33.136Z,928.43
2017-04-20T06:35:47.267Z,928.46
2017-04-20T06:36:01.375Z,928.44
2017-04-20T06:36:15.561Z,928.46
2017-04-20T06:36:29.692Z,928.52
2017-04-20T06:36:43.851Z,928.45
2017-04-20T06:36:57.958Z,928.43
2017-04-20T06:37:12.099Z,928.44
2017-04-20T06:37:26.274Z,928.42
2017-04-20T06:37:40.417Z,928.41
2017-04-20T06:37:54.493Z,928.43
2017-04-20T06:38:08.660Z,928.42
2017-04-20T06:38:22.778Z,928.44
2017-04-20T06:38:36.851Z,928.39
2017-04-20T06:38:51.204Z,928.4
2017-04-20T06:39:05.382Z,928.45
2017-04-20T06:39:19.464Z,928.43
2017-04-20T06:39:33.570Z,928.42
2017-04-20T06:39:47.724Z,928.45
2017-04-20T06:40:01.870Z,928.42
2017-04-20T06:40:16.168Z,928.41
2017-04-20T06:40:30.505Z,928.39
2017-04-20T06:40:44.629Z,928.4
2017-04-20T06:40:58.799Z,928.39
2017-04-20T06:41:12.927Z,928.39
2017-04-20T06:41:27.019Z,928.36
2017-04-20T06:41:41.158Z,928.42